1PS9 weather

Wicker & Wings Aerodrome
Trumbauersville, Pennsylvania, United States

Public forecast

Using degrees Fahrenheit for public forecast. Weather courtesy of forecast.io.

METAR (pilot weather report)

Closest report is Quakertown Airport, 2.0 nm (3.7 km) NNW. Retrieved 2019/07/24 07:40 UTC (5 minutes ago):

KUKT 240740Z AUTO 00000KT 10SM CLR 17/17 A2992 RMK A01

TAF (pilot weather forecast)

Closest forecast is Lehigh Valley International Airport, 15.3 nm (28.3 km) NNW. Retrieved 2019/07/24 06:21 UTC (1 hour ago):

TAF KABE 240520Z 2406/2506 VRB04KT P6SM SCT250 FM241700 01006KT P6SM SCT050 FM250000 VRB04KT P6SM FEW060